createdAt,value
2018-04-07T00:00:51.924Z,47.28
2018-04-07T00:03:24.981Z,47.09
2018-04-07T00:05:57.554Z,47.46
2018-04-07T00:08:30.106Z,47.58
2018-04-07T00:11:03.136Z,46.94
2018-04-07T00:13:35.623Z,46.42
2018-04-07T00:16:08.764Z,45.78
2018-04-07T00:18:41.889Z,45.84
2018-04-07T00:21:15.342Z,45.74
2018-04-07T00:23:48.307Z,46.20
2018-04-07T00:26:21.174Z,45.85
2018-04-07T00:28:53.856Z,45.70
2018-04-07T00:31:26.805Z,45.81
2018-04-07T00:33:59.545Z,45.73
2018-04-07T00:36:31.617Z,45.74
2018-04-07T00:39:04.418Z,45.37
2018-04-07T00:41:36.990Z,45.42
2018-04-07T00:44:09.683Z,45.30
2018-04-07T00:46:41.741Z,45.40
2018-04-07T00:49:13.761Z,45.51
2018-04-07T00:51:46.036Z,45.27
2018-04-07T00:54:17.595Z,44.79
2018-04-07T00:56:49.385Z,44.18
2018-04-07T00:59:21.257Z,43.65
2018-04-07T01:01:52.731Z,42.97
2018-04-07T01:04:25.584Z,42.54
2018-04-07T01:06:57.587Z,42.54
2018-04-07T01:09:29.068Z,42.46
2018-04-07T01:12:00.818Z,42.68
2018-04-07T01:14:32.285Z,43.04
2018-04-07T01:17:03.826Z,43.20
2018-04-07T01:19:35.786Z,43.23
2018-04-07T01:22:07.131Z,43.91
2018-04-07T01:24:38.565Z,44.14
2018-04-07T01:27:09.839Z,44.33
2018-04-07T01:29:41.093Z,44.65
2018-04-07T01:32:12.372Z,44.24
2018-04-07T01:34:43.562Z,44.60
2018-04-07T01:37:14.731Z,45.42
2018-04-07T01:39:45.905Z,45.37
2018-04-07T01:42:17.297Z,45.37
2018-04-07T01:44:48.768Z,44.61
2018-04-07T01:47:20.373Z,44.84
2018-04-07T01:49:51.951Z,44.38
2018-04-07T01:52:23.865Z,44.50
2018-04-07T01:54:55.491Z,44.84
2018-04-07T01:57:27.008Z,44.38
2018-04-07T01:59:58.525Z,44.37
2018-04-07T02:02:30.012Z,44.50
2018-04-07T02:05:01.573Z,45.18
2018-04-07T02:07:33.448Z,45.30
2018-04-07T02:10:04.812Z,45.74
2018-04-07T02:12:35.816Z,45.18
2018-04-07T02:15:07.529Z,45.30
2018-04-07T02:17:39.101Z,45.58
2018-04-07T02:20:10.441Z,45.46
2018-04-07T02:22:41.804Z,45.13
2018-04-07T02:25:13.883Z,45.52
2018-04-07T02:27:45.397Z,46.27
2018-04-07T02:30:16.470Z,45.87
2018-04-07T02:32:48.023Z,45.45
2018-04-07T02:35:19.348Z,45.48
2018-04-07T02:37:50.607Z,45.46
2018-04-07T02:40:22.135Z,45.61
2018-04-07T02:42:53.892Z,45.40
2018-04-07T02:45:25.309Z,45.93
2018-04-07T02:47:56.489Z,45.74
2018-04-07T02:50:27.342Z,46.38
2018-04-07T02:52:58.334Z,45.99
2018-04-07T02:55:30.595Z,45.91
2018-04-07T02:58:02.184Z,46.40
2018-04-07T03:00:33.232Z,46.25
2018-04-07T03:03:04.603Z,46.20
2018-04-07T03:05:35.816Z,46.16
2018-04-07T03:08:07.283Z,45.97
2018-04-07T03:10:38.956Z,45.35
2018-04-07T03:13:10.317Z,45.38
2018-04-07T03:15:41.665Z,45.28
2018-04-07T03:18:12.541Z,44.87
2018-04-07T03:20:44.087Z,45.37
2018-04-07T03:23:16.010Z,45.35
2018-04-07T03:25:47.309Z,45.03
2018-04-07T03:28:19.098Z,45.52
2018-04-07T03:30:50.715Z,45.32
2018-04-07T03:33:22.184Z,45.39
2018-04-07T03:35:53.748Z,45.35
2018-04-07T03:38:24.881Z,45.42
2018-04-07T03:40:56.541Z,45.18
2018-04-07T03:43:28.734Z,46.52
2018-04-07T03:46:01.446Z,46.16
2018-04-07T03:48:32.920Z,46.71
2018-04-07T03:51:04.697Z,46.15
2018-04-07T03:53:36.226Z,46.84
2018-04-07T03:56:07.511Z,46.22
2018-04-07T03:58:38.725Z,46.42
2018-04-07T04:01:10.025Z,47.32
2018-04-07T04:03:41.302Z,48.07
2018-04-07T04:06:12.822Z,47.52
2018-04-07T04:08:44.181Z,48.21
2018-04-07T04:11:15.412Z,49.11
2018-04-07T04:13:46.817Z,47.68
2018-04-07T04:16:18.289Z,49.21
2018-04-07T04:18:49.769Z,49.40
2018-04-07T04:21:21.200Z,51.12
2018-04-07T04:23:52.035Z,50.19
2018-04-07T04:26:23.125Z,49.70
2018-04-07T04:28:54.492Z,49.78
2018-04-07T04:31:26.198Z,50.04
2018-04-07T04:33:57.578Z,51.59
2018-04-07T04:36:29.208Z,50.58
2018-04-07T04:39:00.581Z,51.88
2018-04-07T04:41:31.918Z,53.71
2018-04-07T04:44:03.574Z,53.46
2018-04-07T04:46:34.713Z,52.89
2018-04-07T04:49:05.948Z,51.11
2018-04-07T04:51:37.497Z,53.20
2018-04-07T04:54:08.486Z,52.01
2018-04-07T04:56:40.217Z,53.24
2018-04-07T04:59:12.157Z,52.96
2018-04-07T05:01:43.724Z,53.06
2018-04-07T05:04:16.869Z,53.10
2018-04-07T05:06:48.552Z,52.08
2018-04-07T05:09:19.381Z,52.26
2018-04-07T05:11:50.736Z,51.97
2018-04-07T05:14:21.666Z,50.67
2018-04-07T05:16:52.488Z,50.64
2018-04-07T05:19:23.598Z,51.10
2018-04-07T05:21:54.545Z,50.71
2018-04-07T05:24:25.527Z,50.56
2018-04-07T05:26:57.034Z,49.70
2018-04-07T05:29:28.548Z,49.85
2018-04-07T05:31:59.867Z,49.19
2018-04-07T05:34:31.288Z,48.71
2018-04-07T05:37:03.178Z,48.31
2018-04-07T05:39:34.433Z,48.10
2018-04-07T05:42:05.620Z,47.62
2018-04-07T05:44:36.578Z,47.38
2018-04-07T05:47:07.872Z,47.19
2018-04-07T05:49:39.274Z,47.05
2018-04-07T05:52:10.830Z,46.56
2018-04-07T05:54:42.517Z,46.50
2018-04-07T05:57:13.373Z,46.47
2018-04-07T05:59:44.430Z,46.23
2018-04-07T06:02:15.422Z,46.23
2018-04-07T06:04:46.357Z,45.79
2018-04-07T06:07:17.170Z,45.21
2018-04-07T06:09:48.694Z,45.85
2018-04-07T06:12:19.940Z,45.18
2018-04-07T06:14:51.845Z,45.60
2018-04-07T06:17:23.261Z,45.66
2018-04-07T06:19:54.344Z,45.66
2018-04-07T06:22:25.730Z,46.15
2018-04-07T06:24:56.533Z,45.96
2018-04-07T06:27:27.436Z,44.99
2018-04-07T06:29:59.097Z,45.00
2018-04-07T06:32:30.536Z,46.56
2018-04-07T06:35:01.942Z,47.35
2018-04-07T06:37:32.830Z,48.80
2018-04-07T06:40:03.862Z,48.63
2018-04-07T06:42:35.733Z,48.00
2018-04-07T06:45:07.109Z,47.78
2018-04-07T06:47:38.680Z,47.85
2018-04-07T06:50:10.389Z,44.99
2018-04-07T06:52:41.206Z,44.54
2018-04-07T06:55:12.558Z,44.58
2018-04-07T06:57:43.426Z,44.47
2018-04-07T07:00:14.988Z,45.09
2018-04-07T07:02:46.146Z,44.19
2018-04-07T07:05:16.981Z,43.46
2018-04-07T07:07:47.842Z,44.26
2018-04-07T07:10:19.005Z,44.11
2018-04-07T07:12:54.067Z,43.34
2018-04-07T07:15:25.150Z,42.02
2018-04-07T07:17:55.989Z,40.71
2018-04-07T07:20:26.740Z,40.42
2018-04-07T07:22:57.927Z,39.75
2018-04-07T07:25:28.856Z,39.18
2018-04-07T07:27:59.700Z,38.63
2018-04-07T07:30:31.096Z,38.31
2018-04-07T07:33:01.953Z,38.05
2018-04-07T07:35:32.812Z,37.32
2018-04-07T07:38:04.068Z,37.16
2018-04-07T07:40:35.245Z,37.83
2018-04-07T07:43:06.577Z,36.56
2018-04-07T07:45:37.489Z,36.54
2018-04-07T07:48:08.354Z,36.42
2018-04-07T07:50:39.489Z,35.63
2018-04-07T07:53:10.969Z,35.84
2018-04-07T07:55:42.522Z,35.25
2018-04-07T07:58:13.665Z,34.67
2018-04-07T08:00:44.518Z,35.37
2018-04-07T08:03:15.612Z,34.19
2018-04-07T08:05:46.786Z,35.67
2018-04-07T08:08:18.118Z,36.48
2018-04-07T08:10:49.326Z,34.08
2018-04-07T08:13:20.277Z,33.07
2018-04-07T08:15:51.413Z,32.32
2018-04-07T08:18:22.280Z,32.28
2018-04-07T08:20:53.399Z,32.44
2018-04-07T08:23:24.448Z,34.63
2018-04-07T08:25:55.402Z,33.01
2018-04-07T08:28:26.665Z,32.58
2018-04-07T08:30:58.665Z,31.93
2018-04-07T08:33:29.531Z,34.72
2018-04-07T08:36:00.360Z,33.54
2018-04-07T08:38:31.552Z,32.39
2018-04-07T08:41:02.481Z,33.94
2018-04-07T08:43:34.146Z,32.83
2018-04-07T08:46:05.033Z,34.37
2018-04-07T08:48:35.973Z,33.64
2018-04-07T08:51:07.521Z,33.12
2018-04-07T08:53:38.620Z,33.21
2018-04-07T08:56:09.477Z,32.94
2018-04-07T08:58:40.575Z,38.65
2018-04-07T09:01:11.466Z,38.96
2018-04-07T09:03:42.357Z,40.87
2018-04-07T09:06:13.353Z,41.11
2018-04-07T09:08:44.166Z,41.44
2018-04-07T09:11:15.338Z,42.17
2018-04-07T09:13:46.333Z,41.76
2018-04-07T09:16:17.216Z,40.29
2018-04-07T09:18:48.782Z,41.11
2018-04-07T09:21:19.720Z,39.95
2018-04-07T09:23:50.807Z,40.11
2018-04-07T09:26:22.014Z,38.92
2018-04-07T09:28:52.869Z,38.99
2018-04-07T09:31:26.887Z,37.97
2018-04-07T09:33:58.030Z,36.50
2018-04-07T09:36:28.873Z,34.94
2018-04-07T09:38:59.771Z,35.88
2018-04-07T09:41:34.913Z,35.92
2018-04-07T09:44:06.192Z,35.33
2018-04-07T09:46:37.001Z,36.25
2018-04-07T09:49:08.232Z,36.24
2018-04-07T09:51:39.246Z,35.53
2018-04-07T09:54:10.349Z,36.13
2018-04-07T09:56:41.121Z,34.05
2018-04-07T09:59:11.914Z,34.04
2018-04-07T10:01:43.249Z,33.24
2018-04-07T10:04:14.152Z,34.59
2018-04-07T10:06:45.081Z,33.36
2018-04-07T10:09:16.212Z,34.14
2018-04-07T10:11:47.165Z,33.37
2018-04-07T10:14:17.996Z,33.66
2018-04-07T10:16:49.049Z,33.12
2018-04-07T10:19:19.997Z,31.38
2018-04-07T10:21:50.882Z,33.07
2018-04-07T10:24:21.953Z,32.53
2018-04-07T10:26:52.760Z,34.02
2018-04-07T10:29:23.877Z,30.57
2018-04-07T10:31:54.729Z,30.11
2018-04-07T10:34:26.062Z,30.45
2018-04-07T10:36:58.116Z,28.85
2018-04-07T10:39:28.963Z,28.73
2018-04-07T10:41:59.759Z,27.89
2018-04-07T10:44:30.832Z,27.43
2018-04-07T10:47:01.701Z,26.85
2018-04-07T10:49:32.585Z,27.65
2018-04-07T10:52:04.209Z,26.84
2018-04-07T10:54:35.052Z,25.98
2018-04-07T10:57:06.208Z,25.67
2018-04-07T10:59:37.048Z,26.15
2018-04-07T11:02:07.863Z,27.50
2018-04-07T11:04:39.036Z,26.83
2018-04-07T11:07:10.001Z,27.15
2018-04-07T11:09:40.857Z,28.75
2018-04-07T11:12:11.907Z,26.56
2018-04-07T11:14:42.697Z,27.56
2018-04-07T11:17:13.517Z,26.33
2018-04-07T11:19:44.645Z,26.54
2018-04-07T11:22:16.162Z,25.46
2018-04-07T11:24:47.113Z,26.03
2018-04-07T11:27:18.221Z,24.64
2018-04-07T11:29:48.996Z,24.31
2018-04-07T11:32:20.236Z,24.67
2018-04-07T11:34:51.020Z,24.28
2018-04-07T11:37:21.897Z,23.72
2018-04-07T11:39:53.049Z,23.89
2018-04-07T11:42:23.877Z,24.91
2018-04-07T11:44:55.461Z,23.19
2018-04-07T11:47:26.540Z,23.66
2018-04-07T11:49:57.466Z,23.06
2018-04-07T11:52:28.309Z,22.39
2018-04-07T11:54:59.400Z,22.25
2018-04-07T11:57:30.248Z,21.80
2018-04-07T12:00:01.126Z,21.99
2018-04-07T12:02:31.990Z,21.89
2018-04-07T12:05:03.494Z,22.61
2018-04-07T12:07:34.689Z,21.91
2018-04-07T12:10:05.478Z,21.64
2018-04-07T12:12:36.566Z,21.39
2018-04-07T12:15:07.536Z,21.13
2018-04-07T12:17:38.461Z,22.39
2018-04-07T12:20:09.609Z,21.29
2018-04-07T12:22:40.441Z,20.60
2018-04-07T12:25:11.423Z,20.47
2018-04-07T12:27:42.677Z,20.21
2018-04-07T12:30:13.480Z,21.14
2018-04-07T12:32:44.760Z,20.71
2018-04-07T12:35:15.662Z,20.16
2018-04-07T12:37:46.910Z,20.08
2018-04-07T12:40:17.951Z,20.31
2018-04-07T12:42:48.789Z,19.74
2018-04-07T12:45:21.241Z,19.77
2018-04-07T12:47:52.496Z,19.89
2018-04-07T12:50:23.538Z,20.57
2018-04-07T12:52:54.716Z,19.99
2018-04-07T12:55:25.496Z,20.10
2018-04-07T12:57:56.289Z,19.60
2018-04-07T13:00:27.373Z,19.63
2018-04-07T13:02:58.258Z,19.72
2018-04-07T13:05:29.374Z,19.43
2018-04-07T13:08:00.306Z,20.25
2018-04-07T13:10:31.206Z,19.39
2018-04-07T13:13:03.096Z,19.50
2018-04-07T13:15:34.124Z,18.97
2018-04-07T13:18:04.934Z,18.44
2018-04-07T13:20:36.134Z,18.55
2018-04-07T13:23:06.969Z,18.50
2018-04-07T13:25:37.788Z,18.46
2018-04-07T13:28:09.165Z,18.97
2018-04-07T13:30:40.458Z,19.26
2018-04-07T13:33:11.971Z,19.53
2018-04-07T13:35:42.928Z,20.48
2018-04-07T13:38:13.829Z,21.39
2018-04-07T13:40:46.550Z,20.01
2018-04-07T13:43:17.951Z,19.32
2018-04-07T13:45:49.646Z,18.41
2018-04-07T13:48:24.720Z,18.67
2018-04-07T13:50:56.400Z,18.65
2018-04-07T13:53:30.721Z,19.02
2018-04-07T13:56:02.697Z,18.71
2018-04-07T13:58:34.860Z,19.43
2018-04-07T14:01:06.009Z,19.65
2018-04-07T14:03:37.169Z,19.95
2018-04-07T14:06:08.381Z,19.85
2018-04-07T14:08:39.200Z,20.00
2018-04-07T14:11:10.736Z,20.46
2018-04-07T14:13:43.366Z,19.77
2018-04-07T14:16:14.216Z,18.87
2018-04-07T14:18:45.503Z,18.92
2018-04-07T14:21:16.263Z,18.77
2018-04-07T14:23:47.124Z,19.31
2018-04-07T14:26:18.373Z,19.36
2018-04-07T14:28:49.276Z,19.77
2018-04-07T14:31:20.144Z,20.34
2018-04-07T14:33:54.890Z,20.57
2018-04-07T14:38:47.033Z,19.93
2018-04-07T14:41:18.133Z,20.81
2018-04-07T14:43:49.177Z,21.49
2018-04-07T14:46:20.052Z,21.50
2018-04-07T14:48:51.260Z,21.16
2018-04-07T14:51:24.113Z,21.73
2018-04-07T14:56:38.011Z,22.27
2018-04-07T14:59:08.919Z,24.18
2018-04-07T15:01:40.644Z,22.25
2018-04-07T15:04:12.500Z,22.71
2018-04-07T15:06:47.420Z,22.97
2018-04-07T15:09:22.607Z,22.94
2018-04-07T15:11:56.097Z,23.12
2018-04-07T15:14:28.723Z,24.04
2018-04-07T15:17:04.128Z,23.25
2018-04-07T15:19:36.262Z,22.97
2018-04-07T15:22:07.137Z,23.23
2018-04-07T15:24:40.990Z,23.51
2018-04-07T15:27:12.118Z,23.72
2018-04-07T15:29:42.900Z,23.87
2018-04-07T15:32:18.625Z,23.96
2018-04-07T15:34:49.751Z,23.81
2018-04-07T15:37:22.096Z,23.79
2018-04-07T15:39:53.361Z,23.72
2018-04-07T15:42:25.432Z,24.31
2018-04-07T15:44:57.795Z,24.45
2018-04-07T15:47:34.857Z,25.19
2018-04-07T15:50:09.379Z,23.72
2018-04-07T15:52:42.877Z,24.33
2018-04-07T15:55:15.166Z,24.30
2018-04-07T15:57:47.939Z,25.19
2018-04-07T16:00:20.552Z,24.79
2018-04-07T16:02:52.958Z,24.59
2018-04-07T16:05:25.917Z,24.97
2018-04-07T16:07:58.770Z,24.96
2018-04-07T16:10:30.138Z,25.07
2018-04-07T16:13:01.651Z,25.14
2018-04-07T16:15:34.186Z,25.19
2018-04-07T16:18:06.104Z,25.89
2018-04-07T16:20:39.029Z,25.62
2018-04-07T16:23:15.445Z,26.09
2018-04-07T16:25:50.391Z,26.12
2018-04-07T16:28:24.260Z,25.74
2018-04-07T16:30:58.887Z,26.39
2018-04-07T16:33:30.269Z,25.84
2018-04-07T16:36:03.614Z,26.22
2018-04-07T16:38:34.597Z,26.74
2018-04-07T16:41:06.564Z,26.49
2018-04-07T16:43:38.578Z,27.17
2018-04-07T16:46:10.169Z,26.88
2018-04-07T16:48:41.268Z,27.38
2018-04-07T16:51:12.149Z,27.82
2018-04-07T16:53:48.724Z,27.56
2018-04-07T16:56:19.521Z,27.74
2018-04-07T16:58:50.761Z,27.84
2018-04-07T17:01:22.299Z,27.89
2018-04-07T17:03:54.116Z,28.01
2018-04-07T17:06:25.717Z,27.97
2018-04-07T17:08:56.602Z,28.52
2018-04-07T17:11:27.413Z,28.19
2018-04-07T17:13:58.579Z,28.26
2018-04-07T17:16:29.448Z,28.25
2018-04-07T17:19:00.278Z,28.43
2018-04-07T17:21:31.385Z,29.04
2018-04-07T17:24:02.311Z,28.68
2018-04-07T17:26:33.368Z,29.03
2018-04-07T17:29:07.944Z,28.86
2018-04-07T17:31:38.729Z,28.98
2018-04-07T17:34:09.886Z,29.27
2018-04-07T17:36:40.673Z,29.19
2018-04-07T17:39:11.556Z,29.43
2018-04-07T17:41:42.721Z,29.62
2018-04-07T17:44:13.585Z,29.57
2018-04-07T17:46:44.500Z,29.77
2018-04-07T17:49:15.645Z,29.81
2018-04-07T17:51:46.525Z,29.85
2018-04-07T17:54:17.381Z,29.89
2018-04-07T17:56:48.508Z,30.15
2018-04-07T17:59:20.090Z,29.89
2018-04-07T18:01:50.941Z,30.12
2018-04-07T18:04:22.131Z,30.52
2018-04-07T18:06:52.978Z,30.36
2018-04-07T18:09:23.844Z,30.60
2018-04-07T18:11:59.129Z,30.75
2018-04-07T18:14:30.457Z,30.93
2018-04-07T18:17:01.590Z,31.03
2018-04-07T18:19:32.364Z,31.07
2018-04-07T18:22:03.246Z,31.29
2018-04-07T18:24:34.476Z,31.33
2018-04-07T18:27:07.025Z,31.18
2018-04-07T18:29:37.864Z,31.41
2018-04-07T18:32:09.760Z,31.57
2018-04-07T18:34:41.258Z,31.49
2018-04-07T18:37:12.904Z,32.22
2018-04-07T18:39:43.833Z,32.09
2018-04-07T18:42:14.668Z,32.08
2018-04-07T18:44:45.836Z,31.81
2018-04-07T18:47:16.673Z,31.78
2018-04-07T18:49:48.145Z,31.90
2018-04-07T18:52:19.865Z,31.95
2018-04-07T18:54:51.186Z,32.31
2018-04-07T18:57:22.405Z,32.13
2018-04-07T18:59:53.466Z,32.21
2018-04-07T19:02:24.472Z,32.27
2018-04-07T19:04:57.597Z,32.49
2018-04-07T19:07:28.615Z,32.61
2018-04-07T19:09:59.845Z,32.73
2018-04-07T19:12:30.963Z,32.65
2018-04-07T19:15:02.433Z,32.65
2018-04-07T19:17:33.289Z,32.82
2018-04-07T19:20:04.610Z,32.71
2018-04-07T19:22:35.501Z,32.94
2018-04-07T19:25:07.367Z,32.90
2018-04-07T19:27:38.684Z,33.12
2018-04-07T19:30:09.737Z,33.25
2018-04-07T19:32:40.985Z,33.48
2018-04-07T19:35:13.471Z,33.87
2018-04-07T19:37:44.461Z,33.85
2018-04-07T19:40:15.792Z,33.85
2018-04-07T19:42:47.513Z,34.25
2018-04-07T19:45:18.613Z,34.12
2018-04-07T19:47:50.039Z,33.92
2018-04-07T19:50:21.372Z,34.35
2018-04-07T19:52:52.236Z,34.41
2018-04-07T19:55:24.375Z,34.16
2018-04-07T19:57:55.575Z,34.44
2018-04-07T20:00:26.444Z,34.69
2018-04-07T20:02:57.369Z,34.90
2018-04-07T20:05:28.720Z,35.01
2018-04-07T20:07:59.626Z,35.30
2018-04-07T20:10:30.785Z,35.30
2018-04-07T20:13:02.817Z,35.49
2018-04-07T20:15:33.714Z,35.79
2018-04-07T20:18:04.958Z,35.88
2018-04-07T20:20:35.833Z,35.83
2018-04-07T20:23:06.668Z,35.77
2018-04-07T20:25:37.853Z,35.71
2018-04-07T20:28:08.763Z,36.10
2018-04-07T20:30:40.110Z,36.51
2018-04-07T20:33:11.325Z,36.45
2018-04-07T20:35:42.298Z,36.71
2018-04-07T20:38:13.502Z,37.29
2018-04-07T20:40:45.469Z,37.17
2018-04-07T20:43:16.955Z,37.35
2018-04-07T20:45:47.933Z,37.29
2018-04-07T20:48:18.774Z,37.70
2018-04-07T20:50:49.580Z,37.59
2018-04-07T20:53:20.704Z,37.84
2018-04-07T20:55:51.517Z,38.26
2018-04-07T20:58:22.347Z,38.02
2018-04-07T21:00:53.503Z,37.92
2018-04-07T21:03:24.337Z,38.34
2018-04-07T21:05:55.919Z,38.11
2018-04-07T21:08:27.456Z,38.58
2018-04-07T21:10:58.456Z,38.43
2018-04-07T21:13:29.572Z,38.36
2018-04-07T21:16:00.365Z,38.41
2018-04-07T21:18:31.191Z,38.31
2018-04-07T21:21:02.294Z,38.55
2018-04-07T21:23:33.156Z,39.76
2018-04-07T21:26:04.112Z,40.04
2018-04-07T21:28:35.387Z,40.74
2018-04-07T21:31:06.837Z,39.79
2018-04-07T21:33:38.441Z,39.42
2018-04-07T21:36:09.369Z,39.25
2018-04-07T21:38:40.296Z,39.33
2018-04-07T21:41:11.568Z,40.42
2018-04-07T21:43:42.478Z,41.19
2018-04-07T21:46:13.401Z,41.88
2018-04-07T21:48:45.271Z,42.10
2018-04-07T21:51:16.182Z,41.59
2018-04-07T21:53:47.588Z,41.74
2018-04-07T21:56:18.665Z,41.55
2018-04-07T21:58:49.753Z,42.56
2018-04-07T22:01:21.489Z,42.40
2018-04-07T22:03:52.516Z,41.85
2018-04-07T22:06:23.461Z,41.83
2018-04-07T22:08:55.473Z,42.49
2018-04-07T22:11:26.609Z,42.47
2018-04-07T22:13:57.405Z,43.47
2018-04-07T22:16:28.709Z,42.20
2018-04-07T22:18:59.903Z,42.52
2018-04-07T22:21:30.797Z,44.28
2018-04-07T22:24:01.859Z,43.68
2018-04-07T22:26:33.517Z,45.00
2018-04-07T22:29:04.621Z,45.02
2018-04-07T22:31:35.576Z,46.27
2018-04-07T22:34:06.405Z,46.37
2018-04-07T22:36:37.570Z,45.36
2018-04-07T22:39:08.916Z,44.35
2018-04-07T22:41:39.820Z,44.53
2018-04-07T22:44:10.889Z,44.40
2018-04-07T22:46:41.716Z,44.69
2018-04-07T22:49:13.069Z,44.64
2018-04-07T22:51:45.683Z,46.65
2018-04-07T22:54:17.542Z,47.54
2018-04-07T22:56:49.657Z,47.39
2018-04-07T22:59:21.608Z,47.44
2018-04-07T23:01:53.502Z,47.37
2018-04-07T23:04:25.740Z,47.43
2018-04-07T23:06:58.209Z,46.66
2018-04-07T23:09:30.371Z,47.07
2018-04-07T23:12:02.401Z,46.98
2018-04-07T23:14:34.465Z,47.78
2018-04-07T23:17:08.159Z,47.63
2018-04-07T23:19:41.189Z,47.90
2018-04-07T23:22:14.685Z,47.83
2018-04-07T23:24:47.028Z,48.20
2018-04-07T23:27:19.137Z,47.75
2018-04-07T23:29:51.069Z,46.77
2018-04-07T23:32:23.736Z,47.39
2018-04-07T23:34:55.906Z,47.05
2018-04-07T23:37:28.261Z,47.08
2018-04-07T23:40:01.497Z,47.51
2018-04-07T23:42:33.815Z,47.10
2018-04-07T23:45:05.320Z,46.86
2018-04-07T23:47:38.596Z,46.81
2018-04-07T23:50:10.632Z,46.85
2018-04-07T23:52:43.430Z,46.94
2018-04-07T23:55:15.612Z,46.54
2018-04-07T23:57:48.227Z,46.48
